Bristol, Tennessee
Current Conditions -  °F | °C
As of 12:35 AM on Tuesday 27 Jan 2015 (Local Time) from KVJI Reporting Station
Overcast Overcast  
Wind Chill: 20°   Ceiling: 1900
Heat Index: 28°   Visibility: 10mi
Dew Point: 21°   Wind: 8mph
Humidity: 74%   Direction: 340°NNW
Pressure: 29.83"   Gusts: NA
Location:  36.59°N, 82.22°W
Report Text: KVJI 270535Z AUTO 34007KT 10SM OVC019 M02/M06 A2983 RMK AO2 T10201060
Loading
Personal Weather Stations






























Interactive Weather Map New forecast layout! Learn more

10-Day Weather Forecast

Advertisements
Track Severe Weather on mobile